Waianae, HI

4:58 AM HST on January 25, 2015 (GMT -1000)
RAWS | Change Station
CLOSE
Current Station
Personal Weather Station
Location: Schofield, HI
Elevation: 1488 ft
Nearby Weather Stations

Elev 1488 ft 21.48 °N, 158.11 °W | Updated 309 days ago

Rain
Rain
61 °F
Feels Like 61 °F
N
16
Wind Variable Wind from NE
Gusts 22 mph

Today
High -- | Low -- °F
--% Chance of Precip.
Yesterday
High -- | Low -- °F
Precip. -- in
7:11 AM 6:17 PM
Waxing Crescent, 33% visible
Pressure 30.03 in
Visibility 10.0 miles
Clouds Few 4000 ft
Dew Point 61 °F
Humidity 96%
Rainfall -9999.00 in
Snow Depth Not available.
UV 0 out of 12
Pollen Not available.
Air Quality Not available.
Flu Activity Not available.
METAR PHHI 251358Z AUTO 32007KT 10SM FEW040 18/16 A3004 RMK AO2 SLP167 T01750156 $

More Conditions Fewer Conditions

Pressure 30.03 in
Visibility 10.0 miles
Clouds Few 4000 ft
Dew Point 61 °F
Humidity 96%
Rainfall -9999.00 in
Snow Depth Not available.
UV 0 out of 12
Pollen Not available.
Air Quality Not available.
Flu Activity Not available.
METAR PHHI 251358Z AUTO 32007KT 10SM FEW040 18/16 A3004 RMK AO2 SLP167 T01750156 $

More Conditions Fewer Conditions

10-Day Weather Forecast

Almanac

Astronomy

Jan. 25, 2015 Rise Set
Actual Time
Civil Twilight
Nautical Twilight
Astronomical Twilight
Moon
Length of Visible Light
Length of Day
Tomorrow will be .
, % of the Moon is Illuminated

Today's Extremes

State Highs State Lows

Community

WunderPhotos

Upload Photos

1,789,899 photos uploaded!

WunderBlogs® & News

Nearby

Air Quality

  Air Quality AQ Index Pollutant
Not available.

Snow Depth

Station Depth Elevation

Earthquake Activity

City Distance Mag. Time & Date
Minimum magnitude displayed is 2.5.

Coastal Water Temperatures

Place Temperature

Nearby Weather Stations